Kasif Kalkavan — V7IX7 — position and weather

sailwx.info

Track history (hours):
 
Tides and Currents Weather Stations Pressure Air Temp Water Temp Dewpoint Dewpoint Depression Visibility Wind Speed Wind Dir Waves Ship Positions

Kasif Kalkavan

Last reported at 2015-Apr-14 13:28 UTC. Time now 2015-Apr-18 16:46 UTC.
Position N 41°21' E 029°38'.

Type: Cargo ship. MMSI: 538090190.

Date/timePositionNaut miles runAvg speedWind from/ knotsBaromVisibWave heightAir tempDewpointWater temp
2015-Apr-14 13:28N 41°21' E 029°38'1517.1
2015-Apr-14 12:34N 41°17' E 029°19'2612.4
2015-Apr-14 10:28N 40°56' E 028°58'1010.6
2015-Apr-14 09:34N 40°48' E 028°52'0 0.3
2015-Apr-14 08:33N 40°47' E 028°52'1 0.5
2015-Apr-14 07:21N 40°47' E 028°52'1 0.8
2015-Apr-14 06:17N 40°46' E 028°51'1 0.8
2015-Apr-14 05:32N 40°46' E 028°50'1 0.6
2015-Apr-14 04:34N 40°45' E 028°50'0 0.4
2015-Apr-14 03:33N 40°45' E 028°49'0 0.1
2015-Apr-14 02:28N 40°45' E 028°49'1 0.4
2015-Apr-14 01:05N 40°46' E 028°49'0 0.6
2015-Apr-14 00:27N 40°46' E 028°49'1 0.6
2015-Apr-13 23:25N 40°47' E 028°49'3 2.9
2015-Apr-13 22:33N 40°48' E 028°47'8 0.9
2015-Apr-13 14:08N 40°48' E 028°57'1016.9
2015-Apr-13 13:32N 40°46' E 029°10'  
2015-Apr-06 18:06N 40°55' E 028°51'915.1
2015-Apr-06 17:30N 41°02' E 028°60'  
Track history (hours):
 
Tides and Currents Weather Stations Pressure Air Temp Water Temp Dewpoint Dewpoint Depression Visibility Wind Speed Wind Dir Waves Ship Positions

Kasif Kalkavan

Last reported at 2015-Apr-14 13:28 UTC. Time now 2015-Apr-18 16:46 UTC.
Position N 41°21' E 029°38'.

Type: Cargo ship. MMSI: 538090190.

Date/timePositionNaut miles runAvg speedWind from/ knotsBaromVisibWave heightAir tempDewpointWater temp
2015-Apr-14 13:28N 41°21' E 029°38'1517.1
2015-Apr-14 12:34N 41°17' E 029°19'2612.4
2015-Apr-14 10:28N 40°56' E 028°58'1010.6
2015-Apr-14 09:34N 40°48' E 028°52'0 0.3
2015-Apr-14 08:33N 40°47' E 028°52'1 0.5
2015-Apr-14 07:21N 40°47' E 028°52'1 0.8
2015-Apr-14 06:17N 40°46' E 028°51'1 0.8
2015-Apr-14 05:32N 40°46' E 028°50'1 0.6
2015-Apr-14 04:34N 40°45' E 028°50'0 0.4
2015-Apr-14 03:33N 40°45' E 028°49'0 0.1
2015-Apr-14 02:28N 40°45' E 028°49'1 0.4
2015-Apr-14 01:05N 40°46' E 028°49'0 0.6
2015-Apr-14 00:27N 40°46' E 028°49'1 0.6
2015-Apr-13 23:25N 40°47' E 028°49'3 2.9
2015-Apr-13 22:33N 40°48' E 028°47'8 0.9
2015-Apr-13 14:08N 40°48' E 028°57'1016.9
2015-Apr-13 13:32N 40°46' E 029°10'  
2015-Apr-06 18:06N 40°55' E 028°51'915.1
2015-Apr-06 17:30N 41°02' E 028°60'  

Dump ship's entire track history